Time;durP1;ratioP1;P1;durP2;ratioP2;P2;SDS_P1;SDS_P2;PMS_P1;PMS_P2;Temp;Humidity;BMP_temperature;BMP_pressure;BME280_temperature;BME280_humidity;BME280_pressure;Samples;Min_cycle;Max_cycle;Signal;HPM_P1;HPM_P2
2022/12/22 03:27:53;;;;;;;4.57;2.97;;;;;;;;;;5035908;28;20423;-92
2022/12/22 03:30:18;;;;;;;6.20;3.72;;;;;;;;;;5051199;28;20025;-92
2022/12/22 03:32:43;;;;;;;5.13;2.85;;;;;;;;;;5035228;28;20025;-91
2022/12/22 03:35:09;;;;;;;7.18;2.95;;;;;;;;;;5035639;28;20089;-91
2022/12/22 03:37:34;;;;;;;5.35;2.97;;;;;;;;;;5050914;28;20113;-90
2022/12/22 03:39:59;;;;;;;6.15;3.40;;;;;;;;;;5034300;28;20017;-90
2022/12/22 03:47:53;;;;;;;10.00;2.47;;;;;;;;;;5023244;28;20079;-89
2022/12/22 03:50:18;;;;;;;4.72;3.42;;;;;;;;;;5034055;28;20033;-89
2022/12/22 03:52:43;;;;;;;4.38;2.50;;;;;;;;;;5033907;28;20468;-89
2022/12/22 03:55:08;;;;;;;5.63;3.30;;;;;;;;;;5034973;28;20044;-89
2022/12/22 03:57:33;;;;;;;6.38;3.65;;;;;;;;;;5035039;28;20048;-89
2022/12/22 03:59:59;;;;;;;4.32;2.97;;;;;;;;;;5034894;28;20037;-89
2022/12/22 04:02:24;;;;;;;6.75;3.67;;;;;;;;;;5050327;28;20017;-90
2022/12/22 04:04:49;;;;;;;5.97;3.40;;;;;;;;;;5034788;28;20114;-90
2022/12/22 04:07:14;;;;;;;4.75;3.10;;;;;;;;;;5049413;28;20454;-91
2022/12/22 04:12:53;;;;;;;4.80;3.13;;;;;;;;;;5050272;28;20097;-91
2022/12/22 04:15:20;;;;;;;4.70;3.08;;;;;;;;;;5034051;28;20112;-92
2022/12/22 04:17:45;;;;;;;6.22;3.30;;;;;;;;;;5033590;28;20469;-91
2022/12/22 04:20:11;;;;;;;3.47;2.20;;;;;;;;;;5033450;28;20010;-91
2022/12/22 04:22:36;;;;;;;3.75;2.55;;;;;;;;;;5049841;28;20108;-90
2022/12/22 04:25:01;;;;;;;4.07;2.83;;;;;;;;;;5050098;28;20121;-91
2022/12/22 04:27:26;;;;;;;11.30;4.20;;;;;;;;;;5034614;28;20104;-91
2022/12/22 04:29:51;;;;;;;6.65;4.00;;;;;;;;;;5035545;28;20080;-91
2022/12/22 04:32:17;;;;;;;7.50;3.72;;;;;;;;;;5034583;28;20014;-92
2022/12/22 04:34:42;;;;;;;8.40;4.65;;;;;;;;;;5033358;28;20448;-91
2022/12/22 04:37:07;;;;;;;14.77;6.00;;;;;;;;;;5049847;28;20021;-91
2022/12/22 04:39:32;;;;;;;10.07;5.32;;;;;;;;;;5033513;28;20017;-91
2022/12/22 04:41:57;;;;;;;15.00;4.20;;;;;;;;;;5032369;28;20401;-90
2022/12/22 04:44:22;;;;;;;7.20;3.08;;;;;;;;;;5034170;28;20025;-89
2022/12/22 04:46:48;;;;;;;9.75;6.13;;;;;;;;;;5033016;28;20025;-89
2022/12/22 04:49:13;;;;;;;7.75;4.90;;;;;;;;;;5049478;28;20017;-90
2022/12/22 04:51:38;;;;;;;5.43;3.28;;;;;;;;;;5033889;28;20044;-90
2022/12/22 04:54:03;;;;;;;5.53;3.10;;;;;;;;;;5031974;28;20060;-90
2022/12/22 04:56:28;;;;;;;5.07;2.60;;;;;;;;;;5049486;28;20144;-90
2022/12/22 04:58:54;;;;;;;2.28;1.75;;;;;;;;;;5032850;28;20451;-91
2022/12/22 05:01:19;;;;;;;2.10;1.85;;;;;;;;;;5049363;28;20018;-91
2022/12/22 05:03:44;;;;;;;2.75;2.10;;;;;;;;;;5032515;28;20028;-92
2022/12/22 05:06:10;;;;;;;3.95;2.20;;;;;;;;;;5033525;28;20025;-91
2022/12/22 05:08:35;;;;;;;5.30;2.40;;;;;;;;;;5032738;28;20081;-91
2022/12/22 05:11:01;;;;;;;4.47;3.08;;;;;;;;;;5032887;28;20037;-91
2022/12/22 05:13:27;;;;;;;4.15;2.38;;;;;;;;;;5049512;28;20570;-91
2022/12/22 05:15:52;;;;;;;2.95;2.03;;;;;;;;;;5033463;28;20021;-91
2022/12/22 05:18:17;;;;;;;3.50;2.40;;;;;;;;;;5033057;28;20056;-93
2022/12/22 05:20:42;;;;;;;3.97;2.67;;;;;;;;;;5032981;28;20487;-92
2022/12/22 05:23:07;;;;;;;4.38;2.60;;;;;;;;;;5032700;28;20520;-92
2022/12/22 05:25:32;;;;;;;4.10;2.90;;;;;;;;;;5032529;28;20070;-93
2022/12/22 05:27:58;;;;;;;4.93;2.95;;;;;;;;;;5032631;28;20024;-92
2022/12/22 05:30:23;;;;;;;5.80;3.20;;;;;;;;;;5031926;28;20349;-92
2022/12/22 05:32:48;;;;;;;5.20;3.38;;;;;;;;;;5032572;28;20013;-92
2022/12/22 05:35:14;;;;;;;5.22;3.33;;;;;;;;;;5048999;28;20017;-92
2022/12/22 05:37:39;;;;;;;5.65;3.67;;;;;;;;;;5032507;28;20064;-92
2022/12/22 05:40:05;;;;;;;6.80;3.42;;;;;;;;;;5031758;28;20376;-92
2022/12/22 05:42:36;;;;;;;5.25;3.35;;;;;;;;;;5032309;28;20021;-91
2022/12/22 05:45:06;;;;;;;4.40;2.33;;;;;;;;;;5048830;28;20017;-91
2022/12/22 05:47:31;;;;;;;3.33;2.00;;;;;;;;;;5032133;28;20032;-92
2022/12/22 05:49:56;;;;;;;2.50;1.88;;;;;;;;;;5031664;28;20112;-92
2022/12/22 05:52:22;;;;;;;3.22;2.15;;;;;;;;;;5033213;28;20032;-92
2022/12/22 05:54:47;;;;;;;2.50;1.73;;;;;;;;;;5033264;28;20017;-91
2022/12/22 05:57:12;;;;;;;2.15;1.50;;;;;;;;;;5048652;28;20014;-92
2022/12/22 05:59:37;;;;;;;4.32;1.45;;;;;;;;;;5048577;28;20103;-92
2022/12/22 06:02:02;;;;;;;5.93;3.70;;;;;;;;;;5032601;28;20048;-92
2022/12/22 06:04:28;;;;;;;2.83;1.90;;;;;;;;;;5048633;28;20482;-92
2022/12/22 06:06:53;;;;;;;2.47;1.83;;;;;;;;;;5048753;28;20021;-92
2022/12/22 06:09:18;;;;;;;4.18;2.63;;;;;;;;;;5033251;28;20025;-92
2022/12/22 06:11:43;;;;;;;5.05;3.17;;;;;;;;;;5032860;28;20096;-92
2022/12/22 06:14:08;;;;;;;4.90;3.03;;;;;;;;;;5039415;28;20377;-92
2022/12/22 06:16:34;;;;;;;7.00;3.72;;;;;;;;;;5043921;28;20063;-93
2022/12/22 06:18:59;;;;;;;10.25;5.28;;;;;;;;;;5031842;28;20026;-92
2022/12/22 06:21:24;;;;;;;14.63;7.18;;;;;;;;;;5035702;28;20025;-93
2022/12/22 06:23:49;;;;;;;15.25;6.80;;;;;;;;;;5042942;28;20511;-93
2022/12/22 06:26:15;;;;;;;21.17;9.38;;;;;;;;;;5038176;28;20025;-93
2022/12/22 06:28:40;;;;;;;21.98;9.10;;;;;;;;;;5049508;28;20048;-92
2022/12/22 06:31:05;;;;;;;24.25;10.60;;;;;;;;;;5052231;28;20017;-90
2022/12/22 06:33:30;;;;;;;26.52;10.70;;;;;;;;;;5035147;28;20026;-92
2022/12/22 06:35:55;;;;;;;24.25;10.25;;;;;;;;;;5035569;28;20022;-92
2022/12/22 06:38:20;;;;;;;26.83;10.55;;;;;;;;;;5036890;28;20017;-92
2022/12/22 06:40:46;;;;;;;26.52;9.80;;;;;;;;;;5035555;28;20104;-92
2022/12/22 06:43:11;;;;;;;27.90;11.65;;;;;;;;;;5035905;28;20457;-91
2022/12/22 06:45:40;;;;;;;32.22;12.43;;;;;;;;;;5036388;28;20014;-92
2022/12/22 06:48:06;;;;;;;31.25;12.07;;;;;;;;;;5035631;28;20105;-92
2022/12/22 06:50:31;;;;;;;33.03;11.98;;;;;;;;;;5035266;28;20109;-92
2022/12/22 06:52:57;;;;;;;32.00;13.32;;;;;;;;;;5034815;28;20045;-92
2022/12/22 06:55:22;;;;;;;31.90;12.50;;;;;;;;;;5034794;28;20025;-92
2022/12/22 06:57:47;;;;;;;31.10;12.85;;;;;;;;;;5036211;28;20041;-93
2022/12/22 07:00:12;;;;;;;28.42;12.40;;;;;;;;;;5033384;28;20445;-92
2022/12/22 07:02:38;;;;;;;29.88;13.15;;;;;;;;;;5025143;28;20033;-92
2022/12/22 07:05:03;;;;;;;30.95;13.77;;;;;;;;;;5032284;28;20022;-92
2022/12/22 07:07:28;;;;;;;31.40;13.38;;;;;;;;;;5033831;28;20033;-92
2022/12/22 07:09:54;;;;;;;27.95;12.55;;;;;;;;;;5032031;28;20041;-92
2022/12/22 07:12:19;;;;;;;29.77;12.10;;;;;;;;;;5048222;28;20025;-92
2022/12/22 07:14:45;;;;;;;28.17;12.02;;;;;;;;;;5034778;28;20022;-93
2022/12/22 07:17:10;;;;;;;28.88;12.40;;;;;;;;;;5033938;28;20083;-92
2022/12/22 07:19:35;;;;;;;33.00;14.02;;;;;;;;;;5034508;28;20017;-92
2022/12/22 07:22:00;;;;;;;29.05;12.57;;;;;;;;;;5034483;28;20014;-92
2022/12/22 07:24:28;;;;;;;33.05;11.43;;;;;;;;;;5034475;28;20477;-92
2022/12/22 07:26:53;;;;;;;31.10;13.13;;;;;;;;;;5034677;28;20037;-92
2022/12/22 07:29:18;;;;;;;31.33;12.63;;;;;;;;;;5034488;28;20017;-92
2022/12/22 07:31:43;;;;;;;29.23;12.75;;;;;;;;;;5035099;28;20014;-90
2022/12/22 07:34:09;;;;;;;30.02;12.82;;;;;;;;;;5033623;28;20156;-91
2022/12/22 07:36:34;;;;;;;32.50;11.73;;;;;;;;;;5033522;28;20021;-91
2022/12/22 07:38:59;;;;;;;30.10;13.25;;;;;;;;;;5036048;28;20026;-90
2022/12/22 07:44:08;;;;;;;36.60;13.18;;;;;;;;;;5035501;28;20024;-90
2022/12/22 07:46:34;;;;;;;30.98;12.15;;;;;;;;;;5033535;28;20390;-91
2022/12/22 07:51:44;;;;;;;31.45;12.82;;;;;;;;;;5029400;28;20024;-91
2022/12/22 07:54:10;;;;;;;21.88;9.77;;;;;;;;;;5033225;28;20682;-90
2022/12/22 07:56:36;;;;;;;27.52;11.43;;;;;;;;;;5050871;28;20112;-87
2022/12/22 07:59:01;;;;;;;33.35;12.60;;;;;;;;;;5027205;28;20524;-91
2022/12/22 08:01:26;;;;;;;29.13;12.02;;;;;;;;;;5031677;28;20057;-90
2022/12/22 08:03:52;;;;;;;26.33;11.00;;;;;;;;;;5036828;28;20452;-92
2022/12/22 08:06:17;;;;;;;34.67;13.10;;;;;;;;;;5035123;28;20025;-92
2022/12/22 08:08:43;;;;;;;33.65;14.05;;;;;;;;;;5035101;28;20380;-91
2022/12/22 08:11:08;;;;;;;36.85;13.65;;;;;;;;;;5033066;28;20419;-92
2022/12/22 08:13:33;;;;;;;34.38;14.10;;;;;;;;;;5031237;28;20024;-92
2022/12/22 08:16:03;;;;;;;34.10;13.93;;;;;;;;;;5033842;28;20104;-92
2022/12/22 08:18:29;;;;;;;36.83;14.80;;;;;;;;;;5036003;28;20026;-88
2022/12/22 08:20:54;;;;;;;38.97;15.20;;;;;;;;;;5026138;28;20056;-94
2022/12/22 08:23:19;;;;;;;36.05;14.63;;;;;;;;;;5033701;28;20030;-91
2022/12/22 08:25:47;;;;;;;38.95;15.30;;;;;;;;;;5034726;28;20100;-92
2022/12/22 08:28:15;;;;;;;36.80;13.88;;;;;;;;;;5033773;28;20021;-93
2022/12/22 08:30:41;;;;;;;38.17;13.50;;;;;;;;;;5035943;28;20121;-93
2022/12/22 08:33:06;;;;;;;42.50;15.18;;;;;;;;;;5025175;28;20116;-91
2022/12/22 08:35:31;;;;;;;42.35;13.73;;;;;;;;;;5033120;28;20017;-90
2022/12/22 08:37:56;;;;;;;39.75;13.50;;;;;;;;;;5032281;28;20451;-87
2022/12/22 08:40:23;;;;;;;33.33;14.18;;;;;;;;;;5033464;28;20071;-90
2022/12/22 08:42:51;;;;;;;39.85;13.65;;;;;;;;;;5033044;28;20028;-92
2022/12/22 08:45:16;;;;;;;36.42;14.90;;;;;;;;;;5030766;28;20021;-92
2022/12/22 08:47:41;;;;;;;37.03;15.45;;;;;;;;;;5029141;28;20059;-92
2022/12/22 08:50:07;;;;;;;48.22;16.80;;;;;;;;;;5030731;28;20100;-92
2022/12/22 08:52:32;;;;;;;40.60;14.50;;;;;;;;;;5034814;28;20132;-93
2022/12/22 08:54:57;;;;;;;41.35;15.18;;;;;;;;;;5031161;28;20021;-89
2022/12/22 08:57:22;;;;;;;40.65;13.80;;;;;;;;;;5030555;28;20441;-87
2022/12/22 08:59:48;;;;;;;46.10;15.32;;;;;;;;;;5033000;28;20024;-86
2022/12/22 09:02:13;;;;;;;41.35;14.60;;;;;;;;;;5028656;28;20025;-83
2022/12/22 09:04:38;;;;;;;41.80;15.27;;;;;;;;;;5024890;28;20024;-82
2022/12/22 09:07:04;;;;;;;42.55;15.20;;;;;;;;;;5030794;28;20548;-84
2022/12/22 09:09:33;;;;;;;43.05;17.35;;;;;;;;;;5031251;28;20120;-87
2022/12/22 09:11:58;;;;;;;47.83;17.17;;;;;;;;;;5029520;28;20100;-87
2022/12/22 09:14:24;;;;;;;53.45;18.65;;;;;;;;;;5028055;28;20163;-84
2022/12/22 09:16:49;;;;;;;52.60;17.63;;;;;;;;;;5027674;28;20033;-85
2022/12/22 09:19:14;;;;;;;54.25;20.60;;;;;;;;;;5027743;28;20500;-86
2022/12/22 09:21:40;;;;;;;58.72;17.88;;;;;;;;;;5023155;28;20026;-87
2022/12/22 09:24:06;;;;;;;50.97;18.67;;;;;;;;;;5026647;28;20416;-86
2022/12/22 09:26:31;;;;;;;39.17;14.85;;;;;;;;;;5036636;28;20021;-85
2022/12/22 09:28:57;;;;;;;49.13;17.02;;;;;;;;;;5031027;28;20017;-86
2022/12/22 09:31:23;;;;;;;43.28;13.35;;;;;;;;;;5021799;28;20036;-86
2022/12/22 09:33:48;;;;;;;38.20;14.13;;;;;;;;;;5025838;28;20041;-85
2022/12/22 09:36:15;;;;;;;37.58;13.80;;;;;;;;;;5025920;28;20344;-86
2022/12/22 09:38:40;;;;;;;39.40;15.23;;;;;;;;;;5032014;28;20037;-84
2022/12/22 09:41:07;;;;;;;40.53;14.88;;;;;;;;;;5031867;28;20489;-84
2022/12/22 09:43:32;;;;;;;40.72;14.48;;;;;;;;;;5020453;28;20602;-84
2022/12/22 09:45:57;;;;;;;44.67;17.30;;;;;;;;;;5029512;28;20029;-87
2022/12/22 09:48:27;;;;;;;38.63;14.52;;;;;;;;;;5031382;28;20474;-86
2022/12/22 09:50:52;;;;;;;38.30;15.70;;;;;;;;;;5020077;28;20453;-86
2022/12/22 09:53:19;;;;;;;36.80;13.55;;;;;;;;;;5026675;28;20069;-87
2022/12/22 09:55:46;;;;;;;36.70;13.70;;;;;;;;;;5025019;28;20053;-87
2022/12/22 09:58:31;;;;;;;37.85;14.65;;;;;;;;;;5023118;28;20094;-87
2022/12/22 10:01:00;;;;;;;42.35;15.25;;;;;;;;;;5032676;28;20033;-86
2022/12/22 10:03:32;;;;;;;38.92;15.35;;;;;;;;;;5024219;28;20432;-87
2022/12/22 10:05:57;;;;;;;35.67;13.20;;;;;;;;;;5025351;28;20026;-86
2022/12/22 10:08:27;;;;;;;38.60;14.27;;;;;;;;;;5046896;28;20040;-86
2022/12/22 10:10:53;;;;;;;33.92;13.18;;;;;;;;;;5027035;28;20033;-86
2022/12/22 10:13:18;;;;;;;38.97;13.90;;;;;;;;;;5028117;28;20017;-86
2022/12/22 10:15:44;;;;;;;41.33;17.27;;;;;;;;;;5028608;28;20030;-86
2022/12/22 10:18:11;;;;;;;42.40;16.85;;;;;;;;;;5028918;28;20041;-87
2022/12/22 10:20:38;;;;;;;40.47;15.25;;;;;;;;;;5025901;28;20673;-84
2022/12/22 10:23:12;;;;;;;38.60;14.68;;;;;;;;;;5027253;28;20013;-85
2022/12/22 10:25:57;;;;;;;42.08;15.30;;;;;;;;;;5030843;28;20024;-84
2022/12/22 10:28:27;;;;;;;35.00;14.13;;;;;;;;;;5029143;28;20495;-86
2022/12/22 10:31:11;;;;;;;31.58;14.07;;;;;;;;;;5046441;28;20021;-86
2022/12/22 10:33:38;;;;;;;35.83;13.38;;;;;;;;;;5030767;28;20142;-87
2022/12/22 10:36:03;;;;;;;33.22;13.52;;;;;;;;;;5025460;28;20169;-87
2022/12/22 10:38:29;;;;;;;34.50;14.88;;;;;;;;;;5032673;28;20437;-87
2022/12/22 10:41:00;;;;;;;34.08;14.25;;;;;;;;;;5028706;28;20405;-87
2022/12/22 10:43:26;;;;;;;33.03;13.10;;;;;;;;;;5026935;28;20014;-87
2022/12/22 10:45:53;;;;;;;31.58;14.38;;;;;;;;;;5044576;28;20028;-87
2022/12/22 10:48:24;;;;;;;28.40;11.93;;;;;;;;;;5025406;28;20385;-90
2022/12/22 10:50:49;;;;;;;28.15;12.27;;;;;;;;;;5028981;28;20017;-88
2022/12/22 10:53:14;;;;;;;34.78;11.55;;;;;;;;;;5026857;28;20446;-87
2022/12/22 10:55:40;;;;;;;31.33;13.10;;;;;;;;;;5029951;28;20052;-86
2022/12/22 10:58:15;;;;;;;31.98;11.73;;;;;;;;;;5029091;28;20018;-88
2022/12/22 11:00:41;;;;;;;29.38;11.73;;;;;;;;;;5041913;28;20026;-87
2022/12/22 11:03:10;;;;;;;27.77;11.38;;;;;;;;;;5033674;28;20542;-88
2022/12/22 11:05:35;;;;;;;31.83;11.25;;;;;;;;;;5027196;28;20022;-87
2022/12/22 11:08:11;;;;;;;32.20;11.95;;;;;;;;;;5025570;28;20060;-86
2022/12/22 11:10:48;;;;;;;32.58;10.90;;;;;;;;;;5035465;28;20021;-87
2022/12/22 11:13:26;;;;;;;28.17;11.43;;;;;;;;;;5040468;28;20025;-86
2022/12/22 11:15:51;;;;;;;26.55;11.20;;;;;;;;;;5036408;28;20382;-87
2022/12/22 11:18:16;;;;;;;29.15;11.32;;;;;;;;;;5033423;28;20029;-86
2022/12/22 11:20:48;;;;;;;25.27;10.38;;;;;;;;;;5024736;28;20164;-85
2022/12/22 11:23:13;;;;;;;27.38;10.25;;;;;;;;;;5043179;28;20053;-86
2022/12/22 11:25:45;;;;;;;23.90;10.82;;;;;;;;;;5029464;28;20032;-87
2022/12/22 11:28:32;;;;;;;21.95;10.15;;;;;;;;;;5032501;28;20053;-86
2022/12/22 11:31:24;;;;;;;22.23;9.88;;;;;;;;;;5024817;28;20018;-88
2022/12/22 11:33:57;;;;;;;23.48;11.98;;;;;;;;;;5037505;28;20116;-87
2022/12/22 11:36:30;;;;;;;24.63;11.77;;;;;;;;;;5028425;28;20033;-87
2022/12/22 11:38:59;;;;;;;23.75;11.43;;;;;;;;;;5032412;28;20022;-87
2022/12/22 11:41:32;;;;;;;26.80;12.07;;;;;;;;;;5031894;28;20021;-84
2022/12/22 11:44:09;;;;;;;22.05;11.27;;;;;;;;;;5027897;28;20636;-85
2022/12/22 11:46:52;;;;;;;18.73;12.27;;;;;;;;;;5023544;28;20033;-87
2022/12/22 11:49:37;;;;;;;15.45;9.65;;;;;;;;;;5026533;28;20025;-85
2022/12/22 11:52:20;;;;;;;13.45;8.27;;;;;;;;;;5042563;28;20043;-88
2022/12/22 11:54:45;;;;;;;;;;;;;;;;;;5031099;28;20009;-85
2022/12/22 11:57:10;;;;;;;24.17;12.02;;;;;;;;;;5030496;28;19914;-85
2022/12/22 11:59:54;;;;;;;22.13;9.38;;;;;;;;;;5023320;28;20033;-86
2022/12/22 12:02:43;;;;;;;17.95;9.00;;;;;;;;;;5042113;28;20485;-87
2022/12/22 12:05:23;;;;;;;17.70;9.00;;;;;;;;;;5024237;28;20037;-87
2022/12/22 12:07:58;;;;;;;16.58;8.32;;;;;;;;;;5036543;28;20017;-87
2022/12/22 12:10:26;;;;;;;15.05;8.27;;;;;;;;;;5034023;28;20037;-87
2022/12/22 12:13:02;;;;;;;22.13;8.63;;;;;;;;;;5035204;28;20021;-87
2022/12/22 12:15:28;;;;;;;19.67;8.75;;;;;;;;;;5031805;28;20037;-87
2022/12/22 12:17:53;;;;;;;17.63;8.95;;;;;;;;;;5035658;28;20084;-87
2022/12/22 12:20:54;;;;;;;21.10;9.63;;;;;;;;;;5028579;28;20014;-87
2022/12/22 12:23:38;;;;;;;16.38;8.82;;;;;;;;;;5039991;28;20033;-87
2022/12/22 12:26:14;;;;;;;16.65;9.48;;;;;;;;;;5032066;28;20481;-87
2022/12/22 12:28:45;;;;;;;18.10;8.55;;;;;;;;;;5047809;28;20116;-87
2022/12/22 12:31:11;;;;;;;15.87;7.40;;;;;;;;;;5031960;28;20552;-88
2022/12/22 12:33:48;;;;;;;11.35;6.30;;;;;;;;;;5035347;28;20021;-89
2022/12/22 12:36:20;;;;;;;12.70;7.25;;;;;;;;;;5047488;28;20039;-87
2022/12/22 12:38:52;;;;;;;15.27;7.80;;;;;;;;;;5029243;28;20014;-87
2022/12/22 12:41:31;;;;;;;17.50;8.43;;;;;;;;;;5044813;28;20469;-88
2022/12/22 12:43:56;;;;;;;13.80;7.45;;;;;;;;;;5028707;28;20532;-85
2022/12/22 12:46:40;;;;;;;13.20;7.00;;;;;;;;;;5027741;28;20115;-85
2022/12/22 12:49:24;;;;;;;12.43;6.68;;;;;;;;;;5034700;28;20103;-87
2022/12/22 12:51:50;;;;;;;12.18;6.13;;;;;;;;;;5033555;28;20108;-85
2022/12/22 12:54:30;;;;;;;9.80;5.22;;;;;;;;;;5042030;28;21009;-86
2022/12/22 12:57:14;;;;;;;9.93;5.80;;;;;;;;;;5041838;28;20377;-86
2022/12/22 12:59:39;;;;;;;11.20;5.90;;;;;;;;;;5017301;28;20516;-86
2022/12/22 13:02:23;;;;;;;8.30;5.35;;;;;;;;;;5048689;28;20017;-85
2022/12/22 13:05:07;;;;;;;12.57;5.78;;;;;;;;;;5030415;28;20037;-86
2022/12/22 13:07:51;;;;;;;8.73;4.53;;;;;;;;;;5033054;28;20419;-86
2022/12/22 13:10:20;;;;;;;9.73;5.65;;;;;;;;;;5035146;28;20108;-85
2022/12/22 13:12:53;;;;;;;8.25;4.53;;;;;;;;;;5043426;28;20083;-85
2022/12/22 13:15:18;;;;;;;;;;;;;;;;;;5037456;28;20026;-85
2022/12/22 13:17:49;;;;;;;9.23;4.25;;;;;;;;;;5038834;28;20248;-86
2022/12/22 13:20:17;;;;;;;5.87;3.33;;;;;;;;;;5045474;28;20269;-85
2022/12/22 13:22:42;;;;;;;12.82;3.47;;;;;;;;;;5022921;28;20028;-85
2022/12/22 13:25:13;;;;;;;7.32;2.92;;;;;;;;;;5023856;28;20101;-85
2022/12/22 13:27:38;;;;;;;4.38;2.15;;;;;;;;;;5030183;28;20041;-87
2022/12/22 13:30:03;;;;;;;6.60;2.67;;;;;;;;;;5043908;28;20051;-87
2022/12/22 13:32:32;;;;;;;6.72;2.60;;;;;;;;;;5043635;28;20531;-87
2022/12/22 13:35:03;;;;;;;3.92;2.28;;;;;;;;;;5036812;28;20165;-86
2022/12/22 13:37:28;;;;;;;3.90;1.90;;;;;;;;;;5037295;28;20033;-87
2022/12/22 13:40:04;;;;;;;3.65;2.25;;;;;;;;;;5027704;28;20025;-89
2022/12/22 13:42:29;;;;;;;3.83;1.80;;;;;;;;;;5029027;28;20584;-90
2022/12/22 13:44:55;;;;;;;4.80;1.80;;;;;;;;;;5044351;28;20075;-86
2022/12/22 13:47:20;;;;;;;11.60;4.03;;;;;;;;;;5020532;28;20057;-89
2022/12/22 13:49:45;;;;;;;7.53;2.33;;;;;;;;;;5030240;28;20029;-89
2022/12/22 13:52:12;;;;;;;8.52;2.33;;;;;;;;;;5026366;28;20103;-89
2022/12/22 13:54:39;;;;;;;3.25;1.90;;;;;;;;;;5019709;28;20032;-90
2022/12/22 13:57:12;;;;;;;4.20;1.80;;;;;;;;;;5030257;28;20688;-89
2022/12/22 13:59:44;;;;;;;4.25;2.10;;;;;;;;;;5032091;28;20037;-90
2022/12/22 14:02:10;;;;;;;4.20;1.77;;;;;;;;;;5035792;28;20014;-90
2022/12/22 14:04:35;;;;;;;3.90;1.70;;;;;;;;;;5047033;28;20115;-90
2022/12/22 14:07:14;;;;;;;4.13;1.50;;;;;;;;;;5025576;28;20470;-87
2022/12/22 14:09:44;;;;;;;6.60;1.60;;;;;;;;;;5038140;28;20026;-87
2022/12/22 14:12:12;;;;;;;3.67;1.52;;;;;;;;;;5043013;28;20047;-90
2022/12/22 14:14:39;;;;;;;7.10;1.95;;;;;;;;;;5030340;28;20389;-90
2022/12/22 14:17:16;;;;;;;4.07;1.70;;;;;;;;;;5029871;28;20030;-88
2022/12/22 14:19:41;;;;;;;3.83;2.03;;;;;;;;;;5027257;28;20021;-91
2022/12/22 14:22:12;;;;;;;2.15;1.70;;;;;;;;;;5048141;28;20048;-88
2022/12/22 14:24:43;;;;;;;3.78;1.88;;;;;;;;;;5047768;28;20037;-89
2022/12/22 14:27:22;;;;;;;4.55;2.35;;;;;;;;;;5030669;28;20029;-89
2022/12/22 14:29:48;;;;;;;5.00;2.00;;;;;;;;;;5028591;28;20612;-89
2022/12/22 14:32:32;;;;;;;3.38;2.20;;;;;;;;;;5028285;28;20048;-90
2022/12/22 14:34:57;;;;;;;4.88;2.60;;;;;;;;;;5044899;28;20017;-89
2022/12/22 14:37:23;;;;;;;5.53;2.58;;;;;;;;;;5048591;28;20032;-90
2022/12/22 14:39:53;;;;;;;5.97;2.50;;;;;;;;;;5041319;28;20013;-90
2022/12/22 14:42:18;;;;;;;7.68;2.50;;;;;;;;;;5030194;28;20108;-90
2022/12/22 14:44:44;;;;;;;5.43;2.22;;;;;;;;;;5029855;28;20041;-90
2022/12/22 14:47:19;;;;;;;4.72;2.60;;;;;;;;;;5024591;28;20029;-91
2022/12/22 14:50:15;;;;;;;6.88;2.20;;;;;;;;;;5033952;28;20550;-90
2022/12/22 14:52:45;;;;;;;7.47;2.90;;;;;;;;;;5035850;28;20112;-91
2022/12/22 14:55:31;;;;;;;4.57;2.78;;;;;;;;;;5033692;28;20022;-90
2022/12/22 14:58:11;;;;;;;4.07;2.30;;;;;;;;;;5031982;28;20101;-92
2022/12/22 15:00:38;;;;;;;4.55;2.72;;;;;;;;;;5047244;28;20018;-89
2022/12/22 15:03:22;;;;;;;6.70;3.50;;;;;;;;;;5035060;28;20434;-90
2022/12/22 15:05:47;;;;;;;4.25;2.67;;;;;;;;;;5049260;28;20112;-88
2022/12/22 15:08:31;;;;;;;6.03;2.72;;;;;;;;;;5042182;28;20089;-87
2022/12/22 15:10:58;;;;;;;5.72;2.88;;;;;;;;;;5050105;28;20013;-89
2022/12/22 15:13:23;;;;;;;8.27;3.90;;;;;;;;;;5044121;28;20347;-89
2022/12/22 15:15:49;;;;;;;10.60;3.80;;;;;;;;;;5034001;28;20029;-89
2022/12/22 15:18:15;;;;;;;9.75;3.13;;;;;;;;;;5046803;28;20105;-90
2022/12/22 15:20:40;;;;;;;6.18;3.05;;;;;;;;;;5025113;28;20101;-90
2022/12/22 15:23:10;;;;;;;5.30;2.63;;;;;;;;;;5048101;28;20083;-89
2022/12/22 15:25:35;;;;;;;10.40;3.55;;;;;;;;;;5038068;28;20388;-92
2022/12/22 15:28:00;;;;;;;10.48;4.15;;;;;;;;;;5028360;28;20024;-88
2022/12/22 15:30:26;;;;;;;8.07;3.40;;;;;;;;;;5029497;28;20037;-90
2022/12/22 15:32:51;;;;;;;7.75;3.53;;;;;;;;;;5032459;28;20018;-89
2022/12/22 15:35:18;;;;;;;5.90;3.10;;;;;;;;;;5028512;28;20476;-90
2022/12/22 15:37:43;;;;;;;7.75;3.28;;;;;;;;;;5026874;28;20061;-90
2022/12/22 15:40:16;;;;;;;6.55;3.85;;;;;;;;;;5049195;28;20029;-91
2022/12/22 15:42:41;;;;;;;12.05;3.72;;;;;;;;;;5038139;28;20022;-88
2022/12/22 15:45:06;;;;;;;10.38;3.85;;;;;;;;;;5025785;28;20077;-90
2022/12/22 15:47:32;;;;;;;7.38;3.80;;;;;;;;;;5033786;28;20578;-89
2022/12/22 15:49:58;;;;;;;9.40;4.40;;;;;;;;;;5058539;28;20029;-91
2022/12/22 15:52:23;;;;;;;16.88;4.47;;;;;;;;;;5020426;28;20460;-90
2022/12/22 15:54:48;;;;;;;12.48;4.47;;;;;;;;;;5040010;28;20060;-89
2022/12/22 15:57:13;;;;;;;15.63;4.55;;;;;;;;;;5029472;28;20173;-89
2022/12/22 15:59:39;;;;;;;15.88;4.32;;;;;;;;;;5045222;28;20018;-88
2022/12/22 16:02:09;;;;;;;15.63;4.22;;;;;;;;;;5046075;28;20024;-88
2022/12/22 16:04:34;;;;;;;15.75;4.32;;;;;;;;;;5031177;28;20018;-89
2022/12/22 16:06:59;;;;;;;17.58;4.93;;;;;;;;;;5031560;28;20147;-88
2022/12/22 16:09:26;;;;;;;16.23;4.35;;;;;;;;;;5025934;28;20049;-89
2022/12/22 16:11:51;;;;;;;15.20;3.42;;;;;;;;;;5033226;28;20014;-89
2022/12/22 16:14:17;;;;;;;18.60;3.63;;;;;;;;;;5041112;28;20049;-89
2022/12/22 16:16:42;;;;;;;26.52;4.07;;;;;;;;;;5028690;28;20030;-87
2022/12/22 16:19:15;;;;;;;20.65;4.18;;;;;;;;;;5049284;28;20036;-90
2022/12/22 16:21:41;;;;;;;21.00;3.25;;;;;;;;;;5032729;28;20028;-90
2022/12/22 16:24:10;;;;;;;30.75;4.47;;;;;;;;;;5036430;28;20400;-87
2022/12/22 16:26:35;;;;;;;31.80;5.43;;;;;;;;;;5030637;28;20580;-87
2022/12/22 16:29:00;;;;;;;22.10;4.10;;;;;;;;;;5032975;28;20180;-87
2022/12/22 16:31:26;;;;;;;22.35;4.38;;;;;;;;;;5038970;28;20057;-88
2022/12/22 16:33:51;;;;;;;27.23;4.30;;;;;;;;;;5024829;28;20045;-90
2022/12/22 16:36:16;;;;;;;25.27;4.43;;;;;;;;;;5040458;28;20063;-89
2022/12/22 16:38:44;;;;;;;27.27;3.95;;;;;;;;;;5028141;28;20025;-90
2022/12/22 16:41:36;;;;;;;18.77;4.07;;;;;;;;;;5033370;28;20022;-90
2022/12/22 16:44:05;;;;;;;30.80;5.15;;;;;;;;;;5033402;28;20416;-90
2022/12/22 16:46:33;;;;;;;20.52;4.72;;;;;;;;;;5026198;28;20092;-90
2022/12/22 16:48:59;;;;;;;38.60;5.00;;;;;;;;;;5029395;28;20029;-90
2022/12/22 16:51:27;;;;;;;38.22;4.95;;;;;;;;;;5033251;28;20018;-89
2022/12/22 16:53:52;;;;;;;34.28;5.75;;;;;;;;;;5024312;28;20030;-90
2022/12/22 16:56:19;;;;;;;38.67;6.15;;;;;;;;;;5031580;28;20022;-90
2022/12/22 16:58:45;;;;;;;39.45;5.93;;;;;;;;;;5030968;28;20028;-88
2022/12/22 17:01:33;;;;;;;39.20;5.68;;;;;;;;;;5025755;28;20542;-90
2022/12/22 17:04:01;;;;;;;31.08;5.00;;;;;;;;;;5048404;28;20017;-89
2022/12/22 17:06:26;;;;;;;32.22;5.25;;;;;;;;;;5027954;28;20030;-88
2022/12/22 17:08:51;;;;;;;30.67;5.70;;;;;;;;;;5021601;28;20022;-89
2022/12/22 17:11:21;;;;;;;38.53;5.82;;;;;;;;;;5046621;28;20021;-88
2022/12/22 17:13:47;;;;;;;27.55;5.38;;;;;;;;;;5027047;28;20531;-89
2022/12/22 17:16:19;;;;;;;35.80;6.32;;;;;;;;;;5034358;28;20093;-88
2022/12/22 17:18:45;;;;;;;35.42;6.25;;;;;;;;;;5020623;28;20425;-89
2022/12/22 17:21:10;;;;;;;47.47;5.80;;;;;;;;;;5033265;28;20025;-88
2022/12/22 17:23:41;;;;;;;36.08;5.63;;;;;;;;;;5030686;28;20017;-88
2022/12/22 17:26:08;;;;;;;39.65;5.20;;;;;;;;;;5029979;28;20117;-88
2022/12/22 17:28:34;;;;;;;39.88;6.82;;;;;;;;;;5031683;28;20032;-89
2022/12/22 17:31:00;;;;;;;43.53;6.70;;;;;;;;;;5025778;28;20571;-89
2022/12/22 17:33:25;;;;;;;33.15;5.95;;;;;;;;;;5032232;28;20546;-89
2022/12/22 17:35:50;;;;;;;43.72;5.95;;;;;;;;;;5031149;28;20044;-89
2022/12/22 17:38:19;;;;;;;35.95;6.22;;;;;;;;;;5023526;28;20025;-89
2022/12/22 17:40:46;;;;;;;34.08;6.03;;;;;;;;;;5027265;28;20417;-89
2022/12/22 17:43:15;;;;;;;44.50;6.30;;;;;;;;;;5045280;28;20053;-89
2022/12/22 17:45:40;;;;;;;45.97;7.32;;;;;;;;;;5030410;28;20029;-88
2022/12/22 17:48:06;;;;;;;39.03;7.72;;;;;;;;;;5046022;28;20021;-89
2022/12/22 17:50:31;;;;;;;39.95;6.07;;;;;;;;;;5030261;28;20658;-89
2022/12/22 17:52:56;;;;;;;38.72;7.22;;;;;;;;;;5035673;28;20034;-89
2022/12/22 17:55:23;;;;;;;56.92;7.80;;;;;;;;;;5026385;28;20022;-89
2022/12/22 17:57:49;;;;;;;43.67;6.35;;;;;;;;;;5029866;28;20029;-89
2022/12/22 18:00:16;;;;;;;55.72;6.82;;;;;;;;;;5038906;28;20461;-88
2022/12/22 18:02:41;;;;;;;43.78;6.60;;;;;;;;;;5030931;28;20022;-88
2022/12/22 18:05:10;;;;;;;40.95;5.70;;;;;;;;;;5034077;28;20103;-88
2022/12/22 18:07:35;;;;;;;49.38;8.82;;;;;;;;;;5027161;28;20125;-86
2022/12/22 18:10:00;;;;;;;55.30;6.72;;;;;;;;;;5030356;28;20039;-89
2022/12/22 18:12:26;;;;;;;44.58;6.18;;;;;;;;;;5027204;28;20138;-88
2022/12/22 18:14:51;;;;;;;46.78;6.13;;;;;;;;;;5026397;28;20021;-89
2022/12/22 18:17:24;;;;;;;31.10;5.72;;;;;;;;;;5032072;28;20108;-88